Time;durP1;ratioP1;P1;durP2;ratioP2;P2;SDS_P1;SDS_P2;PMS_P1;PMS_P2;Temp;Humidity;BMP_temperature;BMP_pressure;BME280_temperature;BME280_humidity;BME280_pressure;Samples;Min_cycle;Max_cycle;Signal;HPM_P1;HPM_P2
2022/10/09 00:01:20;;;;;;;8.02;1.90;;;11.70;99.90;;;;;;4949033;29;20414;-85
2022/10/09 00:03:50;;;;;;;4.07;1.63;;;11.60;99.90;;;;;;4939164;29;20052;-84
2022/10/09 00:06:22;;;;;;;;;;;11.60;99.90;;;;;;4936067;29;20056;-84
2022/10/09 00:08:49;;;;;;;4.35;1.98;;;11.70;99.90;;;;;;4942797;29;19994;-84
2022/10/09 00:11:19;;;;;;;4.65;2.35;;;11.70;99.90;;;;;;4944973;29;20066;-84
2022/10/09 00:13:47;;;;;;;7.13;1.92;;;11.70;99.90;;;;;;4940230;29;20067;-84
2022/10/09 00:16:16;;;;;;;8.25;1.92;;;11.70;99.90;;;;;;4935881;29;20140;-84
2022/10/09 00:18:43;;;;;;;8.73;2.45;;;11.60;99.90;;;;;;4938272;29;20143;-84
2022/10/09 00:21:20;;;;;;;10.57;2.85;;;11.60;99.90;;;;;;4945835;29;20047;-85
2022/10/09 00:23:48;;;;;;;7.60;2.05;;;11.60;99.90;;;;;;4940710;29;20044;-84
2022/10/09 00:26:14;;;;;;;4.65;1.70;;;11.60;99.90;;;;;;4945524;29;20509;-84
2022/10/09 00:28:41;;;;;;;5.72;2.08;;;11.60;99.90;;;;;;4949365;29;20059;-84
2022/10/09 00:31:09;;;;;;;6.50;1.60;;;11.60;99.90;;;;;;4947764;29;20552;-85
2022/10/09 00:33:36;;;;;;;2.63;1.50;;;11.50;99.90;;;;;;4948234;29;20070;-84
2022/10/09 00:36:06;;;;;;;2.63;1.55;;;11.50;99.90;;;;;;4938382;29;20055;-83
2022/10/09 00:38:33;;;;;;;5.70;1.58;;;11.50;99.90;;;;;;4947627;29;20059;-84
2022/10/09 00:41:01;;;;;;;4.25;1.73;;;11.50;99.90;;;;;;4950550;29;20059;-83
2022/10/09 00:43:48;;;;;;;3.88;1.60;;;11.50;99.90;;;;;;4943599;29;20111;-84
2022/10/09 00:46:19;;;;;;;5.90;1.52;;;11.40;99.90;;;;;;4942546;29;20111;-83
2022/10/09 00:49:02;;;;;;;2.30;1.20;;;11.50;99.90;;;;;;4936200;29;20056;-84
2022/10/09 00:51:30;;;;;;;3.72;1.42;;;11.40;99.90;;;;;;4937580;29;20090;-84
2022/10/09 00:53:58;;;;;;;6.60;1.55;;;11.40;99.90;;;;;;4942309;29;20055;-84
2022/10/09 00:56:25;;;;;;;6.20;1.30;;;11.40;99.90;;;;;;4948499;29;20056;-82
2022/10/09 00:58:55;;;;;;;3.60;1.67;;;11.30;99.90;;;;;;4951678;29;20055;-85
2022/10/09 01:01:21;;;;;;;5.28;1.50;;;11.30;99.90;;;;;;4947703;29;20078;-82
2022/10/09 01:03:48;;;;;;;2.90;1.70;;;11.30;99.90;;;;;;4951393;29;20111;-84
2022/10/09 01:06:24;;;;;;;6.30;1.63;;;11.30;99.90;;;;;;4944617;29;20056;-85
2022/10/09 01:09:04;;;;;;;4.72;1.50;;;11.30;99.90;;;;;;4953129;29;20051;-84
2022/10/09 01:11:50;;;;;;;6.88;1.58;;;11.20;99.90;;;;;;4944401;29;20423;-84
2022/10/09 01:14:28;;;;;;;4.57;1.30;;;11.20;99.90;;;;;;4947679;29;20147;-84
2022/10/09 01:17:11;;;;;;;5.05;1.42;;;11.20;99.90;;;;;;4943269;29;20055;-84
2022/10/09 01:19:49;;;;;;;4.45;1.33;;;11.20;99.90;;;;;;4949478;29;20128;-84
2022/10/09 01:22:23;;;;;;;5.03;1.52;;;11.20;99.90;;;;;;4947928;29;20055;-84
2022/10/09 01:25:00;;;;;;;13.48;1.65;;;11.10;99.90;;;;;;4936149;29;20048;-84
2022/10/09 01:27:29;;;;;;;5.00;1.50;;;11.10;99.90;;;;;;4937415;29;20429;-84
2022/10/09 01:30:00;;;;;;;3.75;1.13;;;11.10;99.90;;;;;;4939400;29;20108;-85
2022/10/09 01:32:33;;;;;;;4.45;1.30;;;11.10;99.90;;;;;;4944560;29;20131;-84
2022/10/09 01:35:01;;;;;;;5.13;1.45;;;11.10;99.90;;;;;;4948627;29;20052;-83
2022/10/09 01:37:30;;;;;;;3.78;1.67;;;11.10;99.90;;;;;;4934819;29;20056;-84
2022/10/09 01:39:58;;;;;;;4.03;1.00;;;11.00;99.90;;;;;;4935096;29;20052;-82
2022/10/09 01:42:27;;;;;;;4.97;1.40;;;11.00;99.90;;;;;;4940630;29;20051;-84
2022/10/09 01:44:54;;;;;;;3.70;1.50;;;11.00;99.90;;;;;;4951852;29;20132;-84
2022/10/09 01:47:21;;;;;;;5.13;1.63;;;11.00;99.90;;;;;;4944635;29;20108;-84
2022/10/09 01:50:12;;;;;;;4.70;2.03;;;11.00;99.90;;;;;;4941242;29;20071;-84
2022/10/09 01:53:02;;;;;;;5.78;1.55;;;11.00;99.90;;;;;;4942598;29;20052;-84
2022/10/09 01:55:40;;;;;;;6.05;1.52;;;11.00;99.90;;;;;;4950631;29;20052;-85
2022/10/09 01:58:25;;;;;;;5.68;1.58;;;11.00;99.90;;;;;;4946105;29;20115;-85
2022/10/09 02:01:00;;;;;;;3.13;1.10;;;11.00;99.90;;;;;;4940930;29;20126;-84
2022/10/09 02:03:28;;;;;;;3.25;1.40;;;11.00;99.90;;;;;;4943368;29;20103;-85
2022/10/09 02:05:56;;;;;;;6.03;1.48;;;11.00;99.90;;;;;;4935623;29;20541;-84
2022/10/09 02:08:24;;;;;;;2.72;1.17;;;10.90;99.90;;;;;;4942520;29;20082;-85
2022/10/09 02:10:55;;;;;;;4.68;1.20;;;10.90;99.90;;;;;;4946942;29;20064;-85
2022/10/09 02:13:22;;;;;;;3.83;1.05;;;10.90;99.90;;;;;;4943103;29;20067;-85
2022/10/09 02:16:31;;;;;;;2.53;1.35;;;10.90;99.90;;;;;;4953822;29;20083;-84
2022/10/09 02:19:15;;;;;;;6.95;1.73;;;10.90;99.90;;;;;;4935948;29;20055;-84
2022/10/09 02:21:46;;;;;;;3.00;1.30;;;10.80;99.90;;;;;;4940307;29;20035;-85
2022/10/09 02:24:19;;;;;;;4.15;1.33;;;10.80;99.90;;;;;;4956952;29;20080;-85
2022/10/09 02:26:46;;;;;;;4.18;1.40;;;10.80;99.90;;;;;;4955411;29;20052;-84
2022/10/09 02:29:14;;;;;;;7.25;1.20;;;10.80;99.90;;;;;;4945961;29;20052;-83
2022/10/09 02:31:42;;;;;;;2.60;1.30;;;10.80;99.90;;;;;;4932417;29;20108;-83
2022/10/09 02:34:11;;;;;;;2.47;1.30;;;10.80;99.90;;;;;;4932854;29;20052;-85
2022/10/09 02:36:38;;;;;;;7.70;1.83;;;10.80;99.90;;;;;;4944936;29;20071;-83
2022/10/09 02:39:06;;;;;;;6.57;1.38;;;10.70;99.90;;;;;;4944817;29;20051;-84
2022/10/09 02:41:33;;;;;;;2.72;1.40;;;10.70;99.90;;;;;;4940764;29;20070;-84
2022/10/09 02:44:01;;;;;;;5.47;1.65;;;10.70;99.90;;;;;;4937716;29;20048;-84
2022/10/09 02:46:28;;;;;;;4.10;1.50;;;10.60;99.90;;;;;;4935413;29;20115;-83
2022/10/09 02:48:56;;;;;;;3.38;1.10;;;10.60;99.90;;;;;;4940928;29;20116;-84
2022/10/09 02:51:23;;;;;;;6.60;1.58;;;10.60;99.90;;;;;;4945099;29;20051;-84
2022/10/09 02:53:52;;;;;;;7.30;1.50;;;10.60;99.90;;;;;;4938939;29;20055;-84
2022/10/09 02:56:20;;;;;;;5.75;2.33;;;10.60;99.90;;;;;;4944935;29;20078;-85
2022/10/09 02:58:47;;;;;;;2.00;1.30;;;10.60;99.90;;;;;;4951973;29;20062;-84
2022/10/09 03:01:13;;;;;;;3.22;1.50;;;10.50;99.90;;;;;;4948446;29;20055;-84
2022/10/09 03:03:40;;;;;;;7.10;1.60;;;10.50;99.90;;;;;;4942058;29;20075;-83
2022/10/09 03:06:13;;;;;;;6.65;1.58;;;10.50;99.90;;;;;;4930679;29;20421;-83
2022/10/09 03:08:42;;;;;;;4.22;1.60;;;10.50;99.90;;;;;;4940674;29;20127;-83
2022/10/09 03:11:10;;;;;;;6.20;1.50;;;10.40;99.90;;;;;;4938374;29;20422;-83
2022/10/09 03:13:38;;;;;;;5.25;1.63;;;10.40;99.90;;;;;;4932903;29;20056;-83
2022/10/09 03:16:10;;;;;;;5.20;1.40;;;10.40;99.90;;;;;;4930723;29;20052;-83
2022/10/09 03:18:38;;;;;;;4.93;1.83;;;10.40;99.90;;;;;;4944467;29;20138;-84
2022/10/09 03:21:07;;;;;;;6.75;2.50;;;10.40;99.90;;;;;;4941034;29;20143;-84
2022/10/09 03:23:34;;;;;;;6.30;1.92;;;10.30;99.90;;;;;;4931504;29;20048;-84
2022/10/09 03:26:04;;;;;;;10.13;2.03;;;10.30;99.90;;;;;;4930744;29;20055;-84
2022/10/09 03:28:30;;;;;;;3.35;2.20;;;10.30;99.90;;;;;;4930831;29;20064;-84
2022/10/09 03:30:57;;;;;;;3.45;1.50;;;10.20;99.90;;;;;;4934814;29;20508;-84
2022/10/09 03:33:24;;;;;;;3.90;1.70;;;10.20;99.90;;;;;;4939338;29;20047;-83
2022/10/09 03:35:51;;;;;;;4.43;1.90;;;10.30;99.90;;;;;;4943888;29;20058;-82
2022/10/09 03:38:17;;;;;;;4.72;1.75;;;10.10;99.90;;;;;;4946780;29;20058;-82
2022/10/09 03:40:44;;;;;;;4.95;1.88;;;10.20;99.90;;;;;;4946701;29;20058;-83
2022/10/09 03:43:11;;;;;;;5.38;2.10;;;10.20;99.90;;;;;;4939597;29;20377;-83
2022/10/09 03:45:39;;;;;;;7.03;1.95;;;10.20;99.90;;;;;;4934703;29;20107;-83
2022/10/09 03:48:07;;;;;;;4.00;1.73;;;10.20;99.90;;;;;;4938711;29;20058;-82
2022/10/09 03:50:35;;;;;;;8.30;2.22;;;10.20;99.90;;;;;;4935154;29;20420;-83
2022/10/09 03:53:02;;;;;;;3.47;1.80;;;10.20;99.90;;;;;;4939325;29;20048;-83
2022/10/09 03:55:29;;;;;;;3.85;1.63;;;10.20;99.90;;;;;;4944153;29;20052;-84
2022/10/09 03:57:56;;;;;;;4.05;1.80;;;10.30;99.90;;;;;;4939856;29;20052;-84
2022/10/09 04:00:23;;;;;;;8.73;2.70;;;10.20;99.90;;;;;;4949357;29;20058;-84
2022/10/09 04:02:50;;;;;;;12.73;4.32;;;10.30;99.90;;;;;;4944253;29;20051;-84
2022/10/09 04:05:17;;;;;;;8.48;3.00;;;10.40;99.90;;;;;;4940034;29;20048;-84
2022/10/09 04:07:44;;;;;;;5.95;2.35;;;10.40;99.90;;;;;;4948166;29;20051;-85
2022/10/09 04:10:11;;;;;;;18.67;5.57;;;10.50;99.90;;;;;;4950809;29;20078;-84
2022/10/09 04:12:38;;;;;;;14.57;3.90;;;10.50;99.90;;;;;;4946951;29;20079;-83
2022/10/09 04:15:05;;;;;;;12.23;4.18;;;10.50;99.90;;;;;;4940846;29;20058;-84
2022/10/09 04:17:31;;;;;;;11.68;4.30;;;10.50;99.90;;;;;;4933365;29;20076;-83
2022/10/09 04:19:58;;;;;;;14.90;5.13;;;10.50;99.90;;;;;;4937589;29;20052;-85
2022/10/09 04:22:25;;;;;;;7.97;4.15;;;10.60;99.90;;;;;;4935229;29;20159;-84
2022/10/09 04:24:52;;;;;;;22.00;4.50;;;10.60;99.90;;;;;;4954346;29;20063;-83
2022/10/09 04:27:18;;;;;;;16.70;4.57;;;10.60;99.90;;;;;;4957589;28;20055;-81
2022/10/09 04:29:45;;;;;;;14.13;5.32;;;10.60;99.90;;;;;;4948973;29;20139;-83
2022/10/09 04:32:12;;;;;;;14.10;6.60;;;10.80;99.90;;;;;;4946655;29;20054;-84
2022/10/09 04:34:38;;;;;;;42.65;8.00;;;10.70;99.90;;;;;;4941680;29;20068;-83
2022/10/09 04:37:05;;;;;;;32.65;8.82;;;10.70;99.90;;;;;;4931185;29;20053;-84
2022/10/09 04:39:32;;;;;;;29.52;8.73;;;10.80;99.90;;;;;;4932116;29;20068;-83
2022/10/09 04:41:59;;;;;;;152.65;12.82;;;10.80;99.90;;;;;;4948305;29;20071;-84
2022/10/09 04:44:25;;;;;;;82.68;11.52;;;10.90;99.90;;;;;;4944912;29;20197;-84
2022/10/09 04:46:52;;;;;;;69.38;12.00;;;10.90;99.90;;;;;;4940714;29;20111;-85
2022/10/09 04:49:19;;;;;;;39.78;10.95;;;10.90;99.90;;;;;;4949278;29;20048;-83
2022/10/09 04:51:45;;;;;;;76.25;12.70;;;10.90;99.90;;;;;;4946456;29;20062;-85
2022/10/09 04:54:12;;;;;;;76.85;12.15;;;10.90;99.90;;;;;;4950409;29;20031;-84
2022/10/09 04:56:39;;;;;;;22.30;9.32;;;11.00;99.90;;;;;;4931319;29;20470;-83
2022/10/09 04:59:06;;;;;;;58.05;11.27;;;10.90;99.90;;;;;;4940087;29;20048;-83
2022/10/09 05:01:32;;;;;;;42.53;9.57;;;10.90;99.90;;;;;;4945421;29;20609;-84
2022/10/09 05:04:04;;;;;;;38.13;8.30;;;11.00;99.90;;;;;;4946111;29;20421;-84
2022/10/09 05:06:30;;;;;;;31.38;8.27;;;10.90;99.90;;;;;;4938406;29;20109;-84
2022/10/09 05:08:57;;;;;;;18.17;7.03;;;11.00;99.90;;;;;;4948144;29;20067;-84
2022/10/09 05:11:24;;;;;;;20.02;7.35;;;11.00;99.90;;;;;;4948134;29;20051;-84
2022/10/09 05:13:53;;;;;;;18.13;7.47;;;11.00;99.90;;;;;;4947359;29;20058;-83
2022/10/09 05:16:26;;;;;;;14.68;6.57;;;11.00;99.90;;;;;;4942335;29;20051;-83
2022/10/09 05:18:55;;;;;;;14.23;6.70;;;10.90;99.90;;;;;;4943619;29;20074;-84
2022/10/09 05:21:23;;;;;;;24.58;6.30;;;10.90;99.90;;;;;;4932004;29;20075;-85
2022/10/09 05:23:51;;;;;;;12.30;6.53;;;10.90;99.90;;;;;;4931301;29;20135;-84
2022/10/09 05:26:21;;;;;;;7.68;4.97;;;10.90;99.90;;;;;;4935623;29;20051;-84
2022/10/09 05:28:48;;;;;;;26.30;4.20;;;10.80;99.90;;;;;;4942394;29;20674;-84
2022/10/09 05:31:21;;;;;;;10.40;4.47;;;10.80;99.90;;;;;;4939011;29;20134;-84
2022/10/09 05:33:48;;;;;;;18.90;4.47;;;10.80;99.90;;;;;;4953108;29;20066;-83
2022/10/09 05:36:15;;;;;;;10.05;4.78;;;10.70;99.90;;;;;;4951171;29;20051;-84
2022/10/09 05:38:43;;;;;;;11.25;4.80;;;10.70;99.90;;;;;;4944422;29;20059;-84
2022/10/09 05:41:12;;;;;;;10.10;5.10;;;10.60;99.90;;;;;;4950696;29;20052;-83
2022/10/09 05:43:41;;;;;;;8.82;4.55;;;10.60;99.90;;;;;;4941765;29;20106;-84
2022/10/09 05:46:22;;;;;;;9.15;4.63;;;10.60;99.90;;;;;;4949929;29;20068;-84
2022/10/09 05:48:53;;;;;;;10.32;4.65;;;10.60;99.90;;;;;;4945032;29;20048;-84
2022/10/09 05:51:23;;;;;;;10.85;5.28;;;10.60;99.90;;;;;;4936585;29;20051;-84
2022/10/09 05:53:50;;;;;;;11.15;5.70;;;10.60;99.90;;;;;;4936064;29;20116;-85
2022/10/09 05:56:30;;;;;;;10.82;5.25;;;10.70;99.90;;;;;;4944512;29;20070;-83
2022/10/09 05:59:02;;;;;;;11.32;5.30;;;10.70;99.90;;;;;;4944660;29;20403;-84
2022/10/09 06:01:37;;;;;;;11.20;4.90;;;10.70;99.90;;;;;;4940899;29;20075;-84
2022/10/09 06:04:08;;;;;;;8.45;4.60;;;10.70;99.90;;;;;;4941815;29;20099;-85
2022/10/09 06:06:36;;;;;;;9.68;5.18;;;10.90;99.90;;;;;;4940552;29;20048;-84
2022/10/09 06:09:04;;;;;;;9.35;4.80;;;10.70;99.90;;;;;;4946303;29;20104;-84
2022/10/09 06:11:33;;;;;;;14.25;5.40;;;10.70;99.90;;;;;;4950064;29;20059;-84
2022/10/09 06:14:02;;;;;;;12.23;5.47;;;10.70;99.90;;;;;;4955803;29;20107;-84
2022/10/09 06:16:31;;;;;;;21.67;5.65;;;10.80;99.90;;;;;;4954887;29;20095;-84
2022/10/09 06:18:59;;;;;;;23.75;6.00;;;10.60;99.90;;;;;;4950783;29;20055;-84
2022/10/09 06:21:26;;;;;;;23.65;6.65;;;10.70;99.90;;;;;;4946456;29;20561;-84
2022/10/09 06:23:55;;;;;;;29.08;7.03;;;10.70;99.90;;;;;;4942860;29;20067;-84
2022/10/09 06:26:24;;;;;;;40.13;7.93;;;10.80;99.90;;;;;;4941012;29;20048;-84
2022/10/09 06:28:51;;;;;;;33.10;9.05;;;10.80;99.90;;;;;;4961827;29;20044;-84
2022/10/09 06:31:21;;;;;;;26.33;9.00;;;10.80;99.90;;;;;;4944883;29;20063;-84
2022/10/09 06:33:49;;;;;;;23.92;8.65;;;10.80;99.90;;;;;;4941181;29;20111;-84
2022/10/09 06:36:21;;;;;;;25.85;8.18;;;10.90;99.90;;;;;;4944395;29;20088;-83
2022/10/09 06:38:48;;;;;;;48.63;9.20;;;10.90;99.90;;;;;;4937136;29;20166;-84
2022/10/09 06:41:20;;;;;;;47.88;10.75;;;11.00;99.90;;;;;;4934915;29;20063;-83
2022/10/09 06:43:49;;;;;;;77.60;10.77;;;10.90;99.90;;;;;;4938272;29;20055;-83
2022/10/09 06:46:16;;;;;;;55.97;10.05;;;11.00;99.90;;;;;;4941680;29;20433;-85
2022/10/09 06:48:43;;;;;;;26.45;11.38;;;10.90;99.90;;;;;;4938779;29;20060;-83
2022/10/09 06:51:15;;;;;;;43.70;10.70;;;10.90;99.90;;;;;;4937812;29;20079;-83
2022/10/09 06:53:45;;;;;;;71.20;10.27;;;11.00;99.90;;;;;;4932529;29;20067;-83
2022/10/09 06:56:13;;;;;;;25.77;10.93;;;11.00;99.90;;;;;;4927535;29;20047;-83
2022/10/09 06:58:40;;;;;;;27.17;9.70;;;11.00;99.90;;;;;;4930799;29;20058;-83
2022/10/09 07:01:10;;;;;;;46.67;9.73;;;11.00;99.90;;;;;;4947731;29;20517;-83
2022/10/09 07:03:39;;;;;;;25.20;10.05;;;11.00;99.90;;;;;;4937352;29;20138;-84
2022/10/09 07:06:13;;;;;;;33.97;10.13;;;11.10;99.90;;;;;;4939919;29;20058;-83
2022/10/09 07:08:42;;;;;;;29.88;9.90;;;11.10;99.90;;;;;;4942750;29;20048;-83
2022/10/09 07:11:10;;;;;;;18.27;9.20;;;11.10;99.90;;;;;;4934651;29;20044;-83
2022/10/09 07:13:38;;;;;;;24.73;8.52;;;11.20;99.90;;;;;;4933218;29;20058;-83
2022/10/09 07:16:05;;;;;;;21.33;8.50;;;11.20;99.90;;;;;;4942129;29;20062;-83
2022/10/09 07:18:33;;;;;;;33.60;8.75;;;11.20;99.90;;;;;;4950651;29;20119;-83
2022/10/09 07:21:02;;;;;;;38.20;9.15;;;11.30;99.90;;;;;;4949269;29;20083;-84
2022/10/09 07:23:30;;;;;;;26.15;7.60;;;11.20;99.90;;;;;;4946448;29;20058;-83
2022/10/09 07:25:58;;;;;;;17.40;7.32;;;11.20;99.90;;;;;;4942252;29;20055;-85
2022/10/09 07:28:26;;;;;;;19.92;7.22;;;11.20;99.90;;;;;;4942919;29;20047;-84
2022/10/09 07:30:53;;;;;;;11.65;7.03;;;11.20;99.90;;;;;;4949589;29;20071;-84
2022/10/09 07:33:20;;;;;;;16.40;7.05;;;11.30;99.90;;;;;;4944060;29;20107;-83
2022/10/09 07:35:54;;;;;;;8.60;6.38;;;11.30;99.90;;;;;;4938044;29;20119;-83
2022/10/09 07:38:23;;;;;;;9.98;6.05;;;11.40;99.90;;;;;;4935331;29;20530;-84
2022/10/09 07:40:51;;;;;;;16.98;6.60;;;11.50;99.90;;;;;;4949447;29;20436;-83
2022/10/09 07:43:18;;;;;;;11.13;7.40;;;11.50;99.90;;;;;;4943537;29;20467;-84
2022/10/09 07:45:45;;;;;;;19.50;7.00;;;11.60;99.90;;;;;;4931571;29;20150;-83
2022/10/09 07:48:12;;;;;;;11.38;6.75;;;11.60;99.90;;;;;;4928377;29;20107;-86
2022/10/09 07:50:39;;;;;;;11.02;6.72;;;11.70;99.90;;;;;;4956105;29;20054;-84
2022/10/09 07:53:07;;;;;;;46.72;7.90;;;11.70;99.90;;;;;;4952981;29;20075;-85
2022/10/09 07:55:34;;;;;;;12.00;7.50;;;11.70;99.90;;;;;;4954786;29;20044;-85
2022/10/09 07:58:01;;;;;;;12.75;6.55;;;11.70;99.90;;;;;;4956869;28;20092;-85
2022/10/09 08:00:28;;;;;;;63.55;7.95;;;11.80;99.90;;;;;;4952469;29;20047;-85
2022/10/09 08:02:55;;;;;;;80.82;9.65;;;11.70;99.90;;;;;;4941736;29;20056;-84
2022/10/09 08:05:21;;;;;;;36.88;7.78;;;11.70;99.90;;;;;;4930420;29;20044;-84
2022/10/09 08:07:48;;;;;;;37.78;7.55;;;11.60;99.90;;;;;;4918985;29;20052;-82
2022/10/09 08:10:15;;;;;;;98.68;9.10;;;11.60;99.90;;;;;;4931422;29;20588;-83
2022/10/09 08:12:42;;;;;;;43.95;8.32;;;11.50;99.90;;;;;;4927380;29;20051;-82
2022/10/09 08:15:09;;;;;;;11.77;6.72;;;11.50;99.90;;;;;;4929262;29;20054;-84
2022/10/09 08:17:35;;;;;;;10.63;7.03;;;11.60;99.90;;;;;;4935213;29;20058;-82
2022/10/09 08:20:02;;;;;;;11.80;6.65;;;11.70;99.90;;;;;;4929835;29;20134;-83
2022/10/09 08:22:29;;;;;;;11.45;6.85;;;11.70;99.90;;;;;;4925373;29;20051;-84
2022/10/09 08:24:56;;;;;;;9.15;6.57;;;11.80;99.90;;;;;;4928114;29;20057;-83
2022/10/09 08:27:22;;;;;;;8.65;6.60;;;11.90;99.90;;;;;;4924280;29;20353;-82
2022/10/09 08:29:49;;;;;;;10.35;7.10;;;11.90;99.90;;;;;;4929195;29;20056;-84
2022/10/09 08:32:16;;;;;;;17.10;7.70;;;12.00;99.90;;;;;;4935358;29;20128;-84
2022/10/09 08:34:42;;;;;;;11.27;6.90;;;12.10;99.90;;;;;;4933224;29;20491;-83
2022/10/09 08:37:09;;;;;;;8.30;6.93;;;12.20;99.90;;;;;;4929670;29;20399;-84
2022/10/09 08:39:36;;;;;;;9.45;6.70;;;12.30;99.90;;;;;;4926639;29;20055;-84
2022/10/09 08:42:04;;;;;;;8.70;6.68;;;12.40;99.90;;;;;;4930387;29;20044;-84
2022/10/09 08:44:41;;;;;;;20.23;7.63;;;12.50;99.90;;;;;;4939555;29;20043;-83
2022/10/09 08:47:19;;;;;;;11.65;7.78;;;12.50;99.90;;;;;;4937472;29;20052;-83
2022/10/09 08:50:07;;;;;;;10.10;7.15;;;12.50;99.90;;;;;;4931829;29;20123;-83
2022/10/09 08:52:49;;;;;;;10.52;6.97;;;12.50;99.90;;;;;;4924516;29;20052;-84
2022/10/09 08:55:25;;;;;;;9.52;6.60;;;12.60;99.90;;;;;;4938614;29;20382;-83
2022/10/09 08:58:00;;;;;;;7.90;6.18;;;12.50;99.90;;;;;;4931570;29;20521;-82
2022/10/09 09:00:39;;;;;;;6.97;5.60;;;12.60;99.90;;;;;;4934112;29;20047;-84
2022/10/09 09:03:43;;;;;;;7.15;5.57;;;12.60;99.90;;;;;;4936078;29;20058;-84
2022/10/09 09:06:41;;;;;;;7.78;5.35;;;12.70;99.90;;;;;;4938086;29;20051;-83
2022/10/09 09:09:18;;;;;;;11.13;6.38;;;12.70;99.90;;;;;;4935017;29;20448;-84
2022/10/09 09:11:53;;;;;;;8.50;5.85;;;12.80;99.90;;;;;;4942274;29;20048;-85
2022/10/09 09:14:27;;;;;;;9.35;6.20;;;12.90;99.90;;;;;;4957177;28;20065;-83
2022/10/09 09:16:54;;;;;;;10.25;7.25;;;13.00;99.90;;;;;;4935085;29;20052;-85
2022/10/09 09:19:49;;;;;;;10.68;6.95;;;13.10;99.90;;;;;;4937845;29;20044;-84
2022/10/09 09:22:16;;;;;;;10.95;7.57;;;13.20;99.90;;;;;;4934738;29;20047;-84
2022/10/09 09:24:51;;;;;;;10.30;7.78;;;13.30;99.90;;;;;;4941869;29;20044;-84
2022/10/09 09:27:31;;;;;;;14.15;8.52;;;13.30;99.90;;;;;;4940644;29;20071;-84
2022/10/09 09:30:01;;;;;;;;;;;13.30;99.90;;;;;;4937382;29;20520;-83
2022/10/09 09:32:29;;;;;;;18.48;9.68;;;13.20;99.90;;;;;;4934489;28;20403;-84
2022/10/09 09:35:07;;;;;;;11.75;8.98;;;13.20;99.90;;;;;;4931601;29;20518;-85
2022/10/09 09:37:36;;;;;;;12.68;9.35;;;13.10;99.90;;;;;;4939111;28;20048;-84
2022/10/09 09:40:04;;;;;;;13.90;9.25;;;13.10;99.90;;;;;;4940793;29;20058;-83
2022/10/09 09:42:55;;;;;;;13.38;9.18;;;13.10;99.90;;;;;;4939201;29;20063;-84
2022/10/09 09:45:25;;;;;;;14.07;9.98;;;13.10;99.90;;;;;;4938366;29;20048;-84
2022/10/09 09:48:03;;;;;;;12.70;9.20;;;13.10;99.90;;;;;;4938387;29;20078;-85
2022/10/09 09:50:38;;;;;;;13.35;9.80;;;13.20;99.90;;;;;;4944626;29;20135;-82
2022/10/09 09:53:29;;;;;;;15.13;10.48;;;13.20;99.90;;;;;;4943218;29;20051;-83
2022/10/09 09:55:56;;;;;;;12.88;9.57;;;13.30;99.90;;;;;;4927949;29;20062;-84
2022/10/09 09:58:32;;;;;;;16.08;10.05;;;13.40;99.90;;;;;;4931910;29;20049;-83
2022/10/09 10:01:02;;;;;;;16.55;10.73;;;13.40;99.90;;;;;;4935046;29;20524;-84
2022/10/09 10:03:30;;;;;;;14.05;9.93;;;13.50;99.90;;;;;;4933039;29;20135;-85
2022/10/09 10:05:56;;;;;;;15.05;9.55;;;13.50;99.90;;;;;;4932610;29;20052;-87
2022/10/09 10:08:29;;;;;;;15.05;9.35;;;13.60;99.90;;;;;;4936393;29;20050;-85
2022/10/09 10:11:00;;;;;;;11.25;8.38;;;13.70;99.90;;;;;;4929899;29;20150;-86
2022/10/09 10:13:31;;;;;;;;;;;13.70;99.90;;;;;;4932113;29;20058;-85
2022/10/09 10:15:58;;;;;;;9.82;7.47;;;13.70;99.90;;;;;;4935812;29;19927;-83
2022/10/09 10:18:28;;;;;;;12.05;8.93;;;13.60;99.90;;;;;;4935327;29;20052;-84
2022/10/09 10:21:01;;;;;;;12.07;8.30;;;13.50;99.90;;;;;;4927493;29;20056;-85
2022/10/09 10:23:49;;;;;;;10.63;8.25;;;13.40;99.90;;;;;;4930171;29;20054;-83
2022/10/09 10:26:33;;;;;;;10.95;7.47;;;13.30;99.90;;;;;;4926407;29;20087;-84
2022/10/09 10:29:26;;;;;;;10.95;8.57;;;13.10;99.90;;;;;;4934992;29;20048;-84
2022/10/09 10:32:19;;;;;;;13.75;8.45;;;13.00;99.90;;;;;;4929967;29;20055;-83
2022/10/09 10:34:56;;;;;;;18.40;11.60;;;12.90;99.90;;;;;;4926343;29;20050;-84
2022/10/09 10:37:38;;;;;;;14.38;9.52;;;12.90;99.90;;;;;;4928175;29;20054;-84
2022/10/09 10:40:15;;;;;;;17.75;11.23;;;12.80;99.90;;;;;;4932018;29;20086;-82
2022/10/09 10:43:09;;;;;;;14.88;10.73;;;12.70;99.90;;;;;;4930079;29;20052;-84
2022/10/09 10:46:09;;;;;;;14.13;10.25;;;12.50;99.90;;;;;;4925816;29;20098;-85
2022/10/09 10:48:41;;;;;;;13.00;10.03;;;12.40;99.90;;;;;;4930562;29;20509;-83
2022/10/09 10:51:20;;;;;;;14.38;10.80;;;12.30;99.90;;;;;;4927005;29;20088;-84
2022/10/09 10:53:55;;;;;;;11.30;9.35;;;12.30;99.90;;;;;;4931895;29;20058;-82
2022/10/09 10:56:34;;;;;;;11.93;10.00;;;12.20;99.90;;;;;;4924682;29;20048;-84
2022/10/09 10:59:27;;;;;;;13.40;9.55;;;12.20;99.90;;;;;;4931560;29;20419;-83
2022/10/09 11:02:21;;;;;;;12.30;9.98;;;12.20;99.90;;;;;;4929907;29;20055;-82
2022/10/09 11:05:15;;;;;;;13.77;10.35;;;12.30;99.90;;;;;;4931830;29;20107;-84
2022/10/09 11:08:11;;;;;;;13.20;9.35;;;12.30;99.90;;;;;;4931417;29;20135;-84
2022/10/09 11:11:17;;;;;;;15.75;9.70;;;12.30;99.90;;;;;;4943603;29;20502;-84
2022/10/09 11:14:02;;;;;;;13.00;9.65;;;12.30;99.90;;;;;;4927840;29;20054;-85
2022/10/09 11:16:59;;;;;;;13.27;8.80;;;12.20;99.90;;;;;;4926073;29;20047;-83
2022/10/09 11:19:46;;;;;;;15.35;9.57;;;12.30;99.90;;;;;;4922650;29;20610;-82
2022/10/09 11:22:38;;;;;;;12.48;8.38;;;12.30;99.90;;;;;;4944315;29;20164;-84
2022/10/09 11:25:13;;;;;;;14.25;9.43;;;12.30;99.90;;;;;;4926121;29;20052;-83
2022/10/09 11:28:08;;;;;;;9.20;7.68;;;12.30;99.90;;;;;;4922982;29;20148;-83
2022/10/09 11:30:53;;;;;;;11.98;7.68;;;12.40;99.90;;;;;;4928983;29;20047;-84
2022/10/09 11:33:26;;;;;;;11.70;7.50;;;12.50;99.90;;;;;;4925405;29;20050;-84
2022/10/09 11:36:02;;;;;;;10.55;7.45;;;12.50;99.90;;;;;;4929046;29;20524;-85
2022/10/09 11:38:42;;;;;;;9.82;7.10;;;12.60;99.90;;;;;;4921610;29;20063;-84
2022/10/09 11:41:10;;;;;;;12.15;7.05;;;12.60;99.90;;;;;;4932002;29;20107;-84
2022/10/09 11:43:53;;;;;;;13.60;6.88;;;12.60;99.90;;;;;;4932950;29;20075;-83
2022/10/09 11:46:46;;;;;;;8.20;6.38;;;12.60;99.90;;;;;;4927300;29;20048;-84
2022/10/09 11:49:42;;;;;;;9.48;6.75;;;12.70;99.90;;;;;;4926525;29;20146;-84
2022/10/09 11:52:23;;;;;;;10.27;6.30;;;12.80;99.90;;;;;;4923172;29;20055;-84
2022/10/09 11:54:49;;;;;;;10.20;6.30;;;12.90;99.90;;;;;;4925826;29;20062;-85
2022/10/09 11:57:27;;;;;;;11.40;6.00;;;12.90;99.90;;;;;;4927008;29;20414;-84
2022/10/09 12:00:08;;;;;;;9.55;6.00;;;12.90;99.90;;;;;;4924349;29;20130;-84
2022/10/09 12:02:36;;;;;;;9.70;5.95;;;13.00;99.90;;;;;;4920906;29;20048;-83
2022/10/09 12:05:35;;;;;;;13.18;6.13;;;13.00;99.90;;;;;;4929333;29;20044;-84
2022/10/09 12:08:25;;;;;;;9.18;5.50;;;13.10;99.90;;;;;;4924603;29;20052;-82
2022/10/09 12:10:58;;;;;;;10.88;5.55;;;13.20;99.90;;;;;;4923915;29;20363;-83
2022/10/09 12:13:37;;;;;;;10.32;5.90;;;13.20;99.90;;;;;;4929328;29;20505;-84
2022/10/09 12:16:06;;;;;;;7.00;5.63;;;13.20;99.90;;;;;;4929923;29;20055;-84
2022/10/09 12:18:37;;;;;;;9.98;5.68;;;13.30;99.90;;;;;;4926618;29;20051;-84
2022/10/09 12:21:06;;;;;;;10.20;5.97;;;13.40;99.90;;;;;;4926054;29;20052;-84
2022/10/09 12:23:36;;;;;;;10.32;5.22;;;13.50;99.90;;;;;;4932070;29;20661;-84
2022/10/09 12:26:04;;;;;;;9.45;4.80;;;13.50;99.90;;;;;;4932262;29;20444;-83
2022/10/09 12:28:40;;;;;;;6.32;4.63;;;13.60;99.90;;;;;;4926114;29;20094;-85
2022/10/09 12:31:23;;;;;;;10.45;5.80;;;13.60;99.90;;;;;;4925724;29;20052;-84
2022/10/09 12:33:57;;;;;;;10.35;4.30;;;13.70;99.90;;;;;;4923690;29;20104;-85
2022/10/09 12:36:27;;;;;;;8.90;4.60;;;13.70;99.90;;;;;;4931260;29;20051;-84
2022/10/09 12:38:54;;;;;;;6.97;4.57;;;13.80;99.90;;;;;;4952756;29;20111;-87
2022/10/09 12:41:32;;;;;;;10.43;4.43;;;13.80;99.90;;;;;;4951678;29;20063;-86
2022/10/09 12:44:16;;;;;;;9.00;3.90;;;13.90;99.90;;;;;;4955827;29;20044;-86
2022/10/09 12:46:43;;;;;;;6.57;3.42;;;13.90;99.90;;;;;;4955997;29;20055;-88
2022/10/09 12:49:20;;;;;;;8.60;4.05;;;14.00;99.90;;;;;;4939842;29;20058;-83
2022/10/09 12:51:55;;;;;;;7.78;4.40;;;14.00;99.90;;;;;;4933205;29;20159;-85
2022/10/09 12:54:24;;;;;;;8.13;4.13;;;14.00;99.90;;;;;;4925999;29;20058;-83
2022/10/09 12:56:55;;;;;;;11.00;3.90;;;14.10;99.90;;;;;;4932623;29;20155;-84
2022/10/09 12:59:24;;;;;;;6.82;3.58;;;14.10;99.90;;;;;;4931358;29;20056;-83
2022/10/09 13:01:56;;;;;;;7.82;4.10;;;14.10;99.90;;;;;;4933975;29;20062;-84
2022/10/09 13:04:32;;;;;;;8.23;4.28;;;14.20;99.90;;;;;;4931503;29;20051;-84
2022/10/09 13:07:05;;;;;;;5.88;3.78;;;14.20;99.90;;;;;;4934286;29;20061;-84